• Join FlightAware (Why Join?)
  • Login
  • US Flag 
10:18PM EDT


 

Airport Tracker/Info


-or-


 

Live Flight TrackerFlight Track Log ✈ UAL4108 ✈ 30-Oct-2013 ✈ KTYS - KIAD

Flight Track Log - Related Links

Times and Time Zones

All times are in EDT time to prevent confusion due to time zone crossing. See the UAL4108 flight status page for this flight to view local times or setup timezone preferences in your user account.

Time Position Orientation Groundspeed Altitude Reporting Facility
EDT Latitude Longitude Course Direction KTS MPH feet Rate Location/Type
05:56AM 35.8206 -84.0669 28° Northeast 251 289 5,400  Level Atlanta Center
05:57AM 35.8683 -83.9978 50° Northeast 292 336 8,400 2,400 Climbing Atlanta Center
05:58AM 35.9964 -83.6413 27° Northeast  Level Estimated
05:58AM 35.9206 -83.9233 49° Northeast 284 327 10,300  Level Atlanta Center
05:59AM 36.1067 -83.6080 14° North  Level FlightAware Approximate
05:59AM 35.9914 -83.8464 41° Northeast 292 336 11,500  Level Atlanta Center
06:00AM 36.2170 -83.5746 14° North  Level FlightAware Approximate
06:00AM 36.0789 -83.7894 28° Northeast 324 373 13,000  Level Atlanta Center
06:01AM 36.2758 -83.4542 28° Northeast  Level Estimated
06:01AM 36.1706 -83.7328 27° Northeast 347 399 14,600  Level Atlanta Center
06:02AM 36.2725 -83.6653 28° Northeast 365 420 16,200 1,560 Climbing Atlanta Center
06:03AM 36.3592 -83.6081 28° Northeast 381 438 17,700 1,320 Climbing Indianapolis Center
06:04AM 36.4536 -83.5469 27° Northeast 381 438 18,900 1,380 Climbing Indianapolis Center
06:05AM 36.5547 -83.4836 27° Northeast 392 451 20,500 1,560 Climbing Indianapolis Center
06:06AM 36.6517 -83.4206 28° Northeast 392 451 22,100 1,380 Climbing Indianapolis Center
06:07AM 36.7514 -83.3567 27° Northeast 398 458 23,400 1,200 Climbing Indianapolis Center
06:08AM 36.8531 -83.2908 27° Northeast 408 470 24,600 1,200 Climbing Indianapolis Center
06:09AM 36.9567 -83.2236 27° Northeast 412 474 25,900 1,380 Climbing Indianapolis Center
06:10AM 37.0606 -83.1586 27° Northeast 411 473 27,400 1,500 Climbing Indianapolis Center
06:11AM 37.1481 -83.0661 40° Northeast 413 475 29,000 1,500 Climbing Indianapolis Center
06:12AM 37.2008 -82.9294 64° Northeast 429 494 30,500 960 Climbing Indianapolis Center
06:13AM 37.2564 -82.7906 63° Northeast 438 504 31,000 780 Climbing Indianapolis Center
06:15AM 37.3158 -82.6422 63° Northeast 466 536 32,100 1,320 Climbing Indianapolis Center
06:16AM 37.3739 -82.4956 63° Northeast 466 536 33,700 1,380 Climbing Indianapolis Center
06:17AM 37.4292 -82.3500 64° Northeast 461 531 34,900 600 Climbing Indianapolis Center
06:18AM 37.4881 -82.2000 64° Northeast 474 545 35,000  Climbing Indianapolis Center
06:19AM 37.5494 -82.0431 64° Northeast 493 567 35,000  Level Indianapolis Center
06:20AM 37.6094 -81.8850 64° Northeast 498 573 35,000  Level Indianapolis Center
06:21AM 37.6697 -81.7281 64° Northeast 496 571 35,000  Level Indianapolis Center
06:22AM 37.7289 -81.5703 65° Northeast 497 572 35,000  Level Indianapolis Center
06:23AM 37.7831 -81.4250 65° Northeast 499 574 35,000  Level Indianapolis Center
06:24AM 37.8492 -81.2497 64° Northeast 507 583 35,000  Level Indianapolis Center
06:25AM 37.9081 -81.0911 65° Northeast 501 577 35,000  Level Indianapolis Center
06:26AM 37.9656 -80.9264 66° East 507 583 35,000  Level Indianapolis Center
06:27AM 38.0150 -80.7617 69° East 509 586 35,000  Level Indianapolis Center
06:28AM 38.0675 -80.5933 68° East 512 589 35,000  Level Indianapolis Center
06:28AM 38.1075 -80.4686 68° East 506 582 35,000  Level Washington Center
06:29AM 38.1619 -80.3033 67° East 506 582 35,000  Level Washington Center
06:30AM 38.2125 -80.1347 69° East 506 582 35,000 -540 Level Washington Center
06:31AM 38.2644 -79.9686 68° East 501 577 33,900 -1,740 Descending Washington Center
06:32AM 38.3164 -79.8022 68° East 501 577 31,600 -2,220 Descending Washington Center
06:33AM 38.3611 -79.6486 70° East 501 577 29,500 -2,040 Descending Washington Center
06:34AM 38.4103 -79.4869 69° East 501 577 27,600 -1,920 Descending Washington Center
06:35AM 38.4572 -79.3275 69° East 494 568 25,700 -2,220 Descending Washington Center
06:36AM 38.5058 -79.1628 69° East 489 563 23,200 -2,700 Descending Washington Center
06:37AM 38.5481 -79.0083 71° East 474 545 20,500 -2,400 Descending Washington Center
06:38AM 38.5894 -78.8694 69° East 446 513 18,500 -1,980 Descending Washington Center
06:39AM 38.6239 -78.7461 70° East 401 461 16,600 -2,220 Descending Washington Center
06:40AM 38.6606 -78.6200 70° East 378 435 14,100 -2,460 Descending Washington Center
06:41AM 38.6969 -78.4964 69° East 373 429 11,700 -1,560 Descending Washington Center
06:42AM 38.7286 -78.3886 69° East 351 404 11,000 -1,080 Descending Washington Center
06:43AM 38.7847 -78.3056 49° Northeast 319 367 9,600 -1,140 Descending Washington Center
06:44AM 38.8450 -78.2303 44° Northeast 306 352 8,800 -1,080 Descending Washington Center
06:45AM 38.9128 -78.1767 32° Northeast 290 334 7,500 -1,320 Descending Washington Center
06:46AM 38.9767 -78.1175 36° Northeast 285 328 6,300 -780 Descending Washington Center
06:47AM 39.0467 -78.0558 34° Northeast 279 321 6,000 -180 Descending Washington Center
06:48AM 39.0794 -77.9714 63° Northeast 260 299 6,000  Level Washington Center
06:49AM 39.0311 -77.8844 126° Southeast 223 257 6,000  Level Washington Center
06:51AM 38.9667 -77.6833 112° Southeast 294 338 6,000  Level Potomac TRACON
06:52AM 38.9833 -77.6000 76° East 300 345 6,000  Level Potomac TRACON
06:53AM 39.0500 -77.5667 21° North 242 278 6,000  Level Potomac TRACON
06:54AM 39.1167 -77.5667 360° North 231 266 6,000  Level Potomac TRACON
06:55AM 39.1833 -77.5667 360° North 231 266 6,000 -240 Level Potomac TRACON
06:56AM 39.2500 -77.5833 349° North 225 259 5,600 -540 Descending Potomac TRACON
06:57AM 39.2833 -77.5333 49° Northeast 264 304 5,000 -360 Descending Potomac TRACON
06:58AM 39.2667 -77.4667 108° East 244 281 5,000  Level Potomac TRACON
06:59AM 39.2333 -77.4500 159° South 164 189 5,000 -300 Level Potomac TRACON
07:00AM 39.1833 -77.4500 180° South 165 190 4,400 -780 Descending Potomac TRACON
07:01AM 39.1333 -77.4500 180° South 158 182 3,500 -900 Descending Potomac TRACON
07:02AM 39.1000 -77.4500 180° South 157 181 2,700 -840 Descending Potomac TRACON
07:03AM 39.0500 -77.4500 180° South 154 177 1,900 -780 Descending Potomac TRACON
07:04AM 39.0167 -77.4667 201° Southwest 113 130 1,200 -660 Descending Potomac TRACON
07:05AM 38.9833 -77.4667 180° South 118 136 600 -600 Descending Potomac TRACON